sensor_id;sensor_type;location;lat;lon;timestamp;pressure;altitude;pressure_sealevel;temperature;humidity
31717;BME280;18301;51.076;17.046;2023-07-13T00:00:43;99710.88;;;22.68;85.58
31717;BME280;18301;51.076;17.046;2023-07-13T00:05:44;99719.34;;;22.73;85.00
31717;BME280;18301;51.076;17.046;2023-07-13T00:10:46;99719.34;;;22.73;84.90
31717;BME280;18301;51.076;17.046;2023-07-13T00:15:47;99714.50;;;22.75;85.28
31717;BME280;18301;51.076;17.046;2023-07-13T00:20:49;99715.13;;;22.78;85.54
31717;BME280;18301;51.076;17.046;2023-07-13T00:25:51;99715.13;;;22.78;85.77
31717;BME280;18301;51.076;17.046;2023-07-13T00:30:52;99726.13;;;22.78;85.66
31717;BME280;18301;51.076;17.046;2023-07-13T00:35:56;99725.72;;;22.81;85.21
31717;BME280;18301;51.076;17.046;2023-07-13T00:40:58;99716.41;;;22.82;85.26
31717;BME280;18301;51.076;17.046;2023-07-13T00:46:16;99714.69;;;22.81;85.88
31717;BME280;18301;51.076;17.046;2023-07-13T00:51:22;99732.44;;;22.58;88.00
31717;BME280;18301;51.076;17.046;2023-07-13T00:56:26;99789.44;;;22.29;91.87
31717;BME280;18301;51.076;17.046;2023-07-13T01:01:27;99789.84;;;22.26;89.09
31717;BME280;18301;51.076;17.046;2023-07-13T01:06:29;99742.09;;;22.41;88.56
31717;BME280;18301;51.076;17.046;2023-07-13T01:11:31;99748.84;;;22.32;89.44
31717;BME280;18301;51.076;17.046;2023-07-13T01:16:35;99735.91;;;22.25;88.40
31717;BME280;18301;51.076;17.046;2023-07-13T01:21:37;99733.16;;;22.25;88.90
31717;BME280;18301;51.076;17.046;2023-07-13T01:26:44;99723.59;;;22.15;89.75
31717;BME280;18301;51.076;17.046;2023-07-13T01:31:45;99736.00;;;22.04;89.13
31717;BME280;18301;51.076;17.046;2023-07-13T01:36:47;99736.81;;;21.98;89.78
31717;BME280;18301;51.076;17.046;2023-07-13T01:41:49;99729.06;;;21.73;90.76
31717;BME280;18301;51.076;17.046;2023-07-13T01:46:50;99712.13;;;21.63;91.13
31717;BME280;18301;51.076;17.046;2023-07-13T01:51:52;99700.50;;;21.61;91.09
31717;BME280;18301;51.076;17.046;2023-07-13T01:56:53;99702.59;;;21.59;93.29
31717;BME280;18301;51.076;17.046;2023-07-13T02:01:55;99703.22;;;21.61;91.70
31717;BME280;18301;51.076;17.046;2023-07-13T02:06:56;99694.59;;;21.64;91.73
31717;BME280;18301;51.076;17.046;2023-07-13T02:11:58;99681.66;;;21.58;91.48
31717;BME280;18301;51.076;17.046;2023-07-13T02:16:59;99686.34;;;21.64;91.70
31717;BME280;18301;51.076;17.046;2023-07-13T02:22:01;99689.16;;;21.71;91.55
31717;BME280;18301;51.076;17.046;2023-07-13T02:27:02;99688.50;;;21.69;91.33
31717;BME280;18301;51.076;17.046;2023-07-13T02:32:04;99689.34;;;21.69;90.91
31717;BME280;18301;51.076;17.046;2023-07-13T02:37:07;99671.19;;;21.68;90.07
31717;BME280;18301;51.076;17.046;2023-07-13T02:42:08;99666.13;;;21.72;87.63
31717;BME280;18301;51.076;17.046;2023-07-13T02:47:10;99670.56;;;21.73;85.19
31717;BME280;18301;51.076;17.046;2023-07-13T02:52:11;99676.56;;;21.83;83.75
31717;BME280;18301;51.076;17.046;2023-07-13T02:57:13;99688.59;;;21.89;83.07
31717;BME280;18301;51.076;17.046;2023-07-13T03:02:15;99693.28;;;21.95;82.30
31717;BME280;18301;51.076;17.046;2023-07-13T03:07:16;99700.06;;;21.99;78.52
31717;BME280;18301;51.076;17.046;2023-07-13T03:12:18;99696.13;;;22.15;78.79
31717;BME280;18301;51.076;17.046;2023-07-13T03:17:19;99695.09;;;22.22;78.15
31717;BME280;18301;51.076;17.046;2023-07-13T03:22:21;99683.72;;;22.32;77.67
31717;BME280;18301;51.076;17.046;2023-07-13T03:27:23;99687.34;;;22.39;76.98
31717;BME280;18301;51.076;17.046;2023-07-13T03:32:24;99694.75;;;22.45;74.11
31717;BME280;18301;51.076;17.046;2023-07-13T03:37:26;99702.00;;;22.66;74.60
31717;BME280;18301;51.076;17.046;2023-07-13T03:42:27;99703.47;;;22.69;74.38
31717;BME280;18301;51.076;17.046;2023-07-13T03:47:29;99709.63;;;22.71;73.99
31717;BME280;18301;51.076;17.046;2023-07-13T03:52:30;99704.13;;;22.78;73.15
31717;BME280;18301;51.076;17.046;2023-07-13T03:57:32;99700.75;;;22.75;72.41
31717;BME280;18301;51.076;17.046;2023-07-13T04:02:33;99699.03;;;22.81;72.02
31717;BME280;18301;51.076;17.046;2023-07-13T04:07:35;99722.94;;;22.81;71.42
31717;BME280;18301;51.076;17.046;2023-07-13T04:12:36;99724.88;;;22.87;71.47
31717;BME280;18301;51.076;17.046;2023-07-13T04:17:38;99747.28;;;22.90;70.36
31717;BME280;18301;51.076;17.046;2023-07-13T04:22:39;99771.88;;;22.92;69.42
31717;BME280;18301;51.076;17.046;2023-07-13T04:27:41;99827.78;;;22.99;67.49
31717;BME280;18301;51.076;17.046;2023-07-13T04:32:42;99896.69;;;22.84;66.94
31717;BME280;18301;51.076;17.046;2023-07-13T04:37:44;99967.09;;;21.88;68.88
31717;BME280;18301;51.076;17.046;2023-07-13T04:42:46;99954.31;;;21.01;73.58
31717;BME280;18301;51.076;17.046;2023-07-13T04:47:47;99976.25;;;20.71;78.21
31717;BME280;18301;51.076;17.046;2023-07-13T04:52:50;100001.88;;;20.11;80.90
31717;BME280;18301;51.076;17.046;2023-07-13T04:57:52;100019.44;;;19.39;84.85
31717;BME280;18301;51.076;17.046;2023-07-13T05:02:57;99994.03;;;19.30;86.17
31717;BME280;18301;51.076;17.046;2023-07-13T05:07:59;99975.78;;;19.23;86.09
31717;BME280;18301;51.076;17.046;2023-07-13T05:13:01;99960.66;;;19.35;85.26
31717;BME280;18301;51.076;17.046;2023-07-13T05:18:03;99975.06;;;19.29;86.70
31717;BME280;18301;51.076;17.046;2023-07-13T05:23:04;99981.03;;;19.32;86.88
31717;BME280;18301;51.076;17.046;2023-07-13T05:28:06;99955.59;;;19.24;85.89
31717;BME280;18301;51.076;17.046;2023-07-13T05:33:07;99909.16;;;19.16;87.17
31717;BME280;18301;51.076;17.046;2023-07-13T05:38:09;99874.97;;;19.12;86.87
31717;BME280;18301;51.076;17.046;2023-07-13T05:43:11;99903.50;;;18.86;89.25
31717;BME280;18301;51.076;17.046;2023-07-13T05:48:13;99907.50;;;18.75;88.68
31717;BME280;18301;51.076;17.046;2023-07-13T05:53:14;99875.81;;;18.89;87.02
31717;BME280;18301;51.076;17.046;2023-07-13T05:58:17;99816.00;;;18.94;88.00
31717;BME280;18301;51.076;17.046;2023-07-13T06:03:18;99860.25;;;18.90;88.82
31717;BME280;18301;51.076;17.046;2023-07-13T06:08:20;99888.78;;;18.95;87.55
31717;BME280;18301;51.076;17.046;2023-07-13T06:13:22;99860.53;;;19.26;86.92
31717;BME280;18301;51.076;17.046;2023-07-13T06:18:23;99853.59;;;19.38;86.55
31717;BME280;18301;51.076;17.046;2023-07-13T06:23:25;99870.25;;;19.74;87.95
31717;BME280;18301;51.076;17.046;2023-07-13T06:28:27;99890.22;;;20.42;87.48
31717;BME280;18301;51.076;17.046;2023-07-13T06:33:29;99904.44;;;20.61;86.40
31717;BME280;18301;51.076;17.046;2023-07-13T06:38:31;99919.59;;;20.93;85.64
31717;BME280;18301;51.076;17.046;2023-07-13T06:43:33;99935.28;;;20.99;82.41
31717;BME280;18301;51.076;17.046;2023-07-13T06:48:35;99975.50;;;20.77;80.19
31717;BME280;18301;51.076;17.046;2023-07-13T06:53:37;99989.72;;;20.66;81.20
31717;BME280;18301;51.076;17.046;2023-07-13T06:58:39;100014.09;;;20.61;82.27
31717;BME280;18301;51.076;17.046;2023-07-13T07:03:40;100029.59;;;20.31;83.82
31717;BME280;18301;51.076;17.046;2023-07-13T07:08:42;100056.88;;;20.24;84.98
31717;BME280;18301;51.076;17.046;2023-07-13T07:13:43;100083.78;;;19.97;87.33
31717;BME280;18301;51.076;17.046;2023-07-13T07:18:46;100079.13;;;19.83;90.30
31717;BME280;18301;51.076;17.046;2023-07-13T07:23:47;100057.25;;;19.44;92.54
31717;BME280;18301;51.076;17.046;2023-07-13T07:28:49;99989.66;;;19.44;90.78
31717;BME280;18301;51.076;17.046;2023-07-13T07:34:10;99970.84;;;19.49;89.52
31717;BME280;18301;51.076;17.046;2023-07-13T07:39:12;99927.69;;;19.51;91.36
31717;BME280;18301;51.076;17.046;2023-07-13T07:44:13;99886.47;;;19.53;92.14
31717;BME280;18301;51.076;17.046;2023-07-13T07:49:15;99884.53;;;19.39;94.42
31717;BME280;18301;51.076;17.046;2023-07-13T07:54:17;99883.81;;;19.45;94.31
31717;BME280;18301;51.076;17.046;2023-07-13T07:59:38;99904.16;;;19.42;95.51
31717;BME280;18301;51.076;17.046;2023-07-13T08:04:43;99929.31;;;19.69;96.40
31717;BME280;18301;51.076;17.046;2023-07-13T08:09:48;99960.09;;;20.09;95.74
31717;BME280;18301;51.076;17.046;2023-07-13T08:14:53;99983.72;;;20.48;95.47
31717;BME280;18301;51.076;17.046;2023-07-13T08:19:55;99980.91;;;20.85;94.01
31717;BME280;18301;51.076;17.046;2023-07-13T08:24:56;99998.50;;;21.27;91.86
31717;BME280;18301;51.076;17.046;2023-07-13T08:29:58;100008.19;;;21.23;92.26
31717;BME280;18301;51.076;17.046;2023-07-13T08:34:59;100011.38;;;21.27;90.98
31717;BME280;18301;51.076;17.046;2023-07-13T08:40:01;100020.53;;;21.49;90.48
31717;BME280;18301;51.076;17.046;2023-07-13T08:45:34;100041.19;;;21.45;90.58
31717;BME280;18301;51.076;17.046;2023-07-13T08:50:49;100032.59;;;21.18;90.59
31717;BME280;18301;51.076;17.046;2023-07-13T08:56:02;100038.91;;;21.33;89.45
31717;BME280;18301;51.076;17.046;2023-07-13T09:01:17;100045.47;;;21.47;88.73
31717;BME280;18301;51.076;17.046;2023-07-13T09:06:29;100039.53;;;21.65;86.99
31717;BME280;18301;51.076;17.046;2023-07-13T09:11:45;100055.25;;;21.71;91.92
31717;BME280;18301;51.076;17.046;2023-07-13T09:16:48;100053.44;;;22.00;85.80
31717;BME280;18301;51.076;17.046;2023-07-13T09:21:53;100044.28;;;22.14;83.47
31717;BME280;18301;51.076;17.046;2023-07-13T09:26:57;100047.63;;;22.59;83.18
31717;BME280;18301;51.076;17.046;2023-07-13T09:32:02;100050.28;;;22.46;84.60
31717;BME280;18301;51.076;17.046;2023-07-13T09:37:05;100056.66;;;22.53;84.19
31717;BME280;18301;51.076;17.046;2023-07-13T09:42:12;100054.53;;;22.77;81.70
31717;BME280;18301;51.076;17.046;2023-07-13T09:47:23;100051.13;;;22.74;78.68
31717;BME280;18301;51.076;17.046;2023-07-13T09:52:25;100040.09;;;22.74;77.13
31717;BME280;18301;51.076;17.046;2023-07-13T09:57:28;100026.94;;;22.63;83.76
31717;BME280;18301;51.076;17.046;2023-07-13T10:03:05;100025.97;;;22.78;79.49
31717;BME280;18301;51.076;17.046;2023-07-13T10:08:28;100033.94;;;23.42;77.59
31717;BME280;18301;51.076;17.046;2023-07-13T10:13:37;100041.41;;;23.61;74.89
31717;BME280;18301;51.076;17.046;2023-07-13T10:18:50;100049.59;;;23.89;75.76
31717;BME280;18301;51.076;17.046;2023-07-13T10:23:57;100058.50;;;23.98;72.64
31717;BME280;18301;51.076;17.046;2023-07-13T10:29:09;100069.13;;;24.15;71.11
31717;BME280;18301;51.076;17.046;2023-07-13T10:34:13;100052.22;;;24.51;69.33
31717;BME280;18301;51.076;17.046;2023-07-13T10:39:18;100047.97;;;24.55;71.52
31717;BME280;18301;51.076;17.046;2023-07-13T10:44:27;100064.47;;;24.35;63.23
31717;BME280;18301;51.076;17.046;2023-07-13T10:49:31;100042.41;;;24.22;66.10
31717;BME280;18301;51.076;17.046;2023-07-13T10:54:33;100057.72;;;24.64;65.49
31717;BME280;18301;51.076;17.046;2023-07-13T10:59:36;100049.38;;;25.04;64.31
31717;BME280;18301;51.076;17.046;2023-07-13T11:04:48;100053.53;;;25.40;65.36
31717;BME280;18301;51.076;17.046;2023-07-13T11:10:03;100044.34;;;25.46;61.18
31717;BME280;18301;51.076;17.046;2023-07-13T11:15:11;100056.28;;;25.46;61.25
31717;BME280;18301;51.076;17.046;2023-07-13T11:35:30;100053.81;;;25.25;60.97
31717;BME280;18301;51.076;17.046;2023-07-13T11:40:32;100044.78;;;25.43;59.58
31717;BME280;18301;51.076;17.046;2023-07-13T11:45:34;100060.00;;;25.65;59.70
31717;BME280;18301;51.076;17.046;2023-07-13T11:51:01;100034.88;;;25.73;60.83
31717;BME280;18301;51.076;17.046;2023-07-13T11:56:05;100053.56;;;25.78;61.33
31717;BME280;18301;51.076;17.046;2023-07-13T12:01:17;100052.72;;;25.84;59.96
31717;BME280;18301;51.076;17.046;2023-07-13T12:06:29;100060.34;;;25.31;59.82
31717;BME280;18301;51.076;17.046;2023-07-13T12:11:35;100056.84;;;25.62;60.07
31717;BME280;18301;51.076;17.046;2023-07-13T12:16:42;100054.84;;;25.76;58.02
31717;BME280;18301;51.076;17.046;2023-07-13T12:21:44;100047.22;;;25.71;58.73
31717;BME280;18301;51.076;17.046;2023-07-13T12:27:01;100058.25;;;25.84;58.14
31717;BME280;18301;51.076;17.046;2023-07-13T12:32:08;100052.03;;;26.21;57.49
31717;BME280;18301;51.076;17.046;2023-07-13T12:37:12;100045.03;;;26.50;57.22
31717;BME280;18301;51.076;17.046;2023-07-13T12:42:27;100043.03;;;26.57;56.31
31717;BME280;18301;51.076;17.046;2023-07-13T12:47:30;100040.34;;;26.44;51.74
31717;BME280;18301;51.076;17.046;2023-07-13T12:52:34;100047.31;;;26.28;51.60
31717;BME280;18301;51.076;17.046;2023-07-13T12:57:41;100039.88;;;25.97;52.21
31717;BME280;18301;51.076;17.046;2023-07-13T13:02:49;100028.75;;;26.03;52.72
31717;BME280;18301;51.076;17.046;2023-07-13T13:07:52;100046.16;;;26.10;52.69
31717;BME280;18301;51.076;17.046;2023-07-13T13:12:53;100037.09;;;25.97;53.02
31717;BME280;18301;51.076;17.046;2023-07-13T13:17:55;100036.03;;;25.98;53.67
31717;BME280;18301;51.076;17.046;2023-07-13T13:22:57;100040.53;;;26.24;53.87
31717;BME280;18301;51.076;17.046;2023-07-13T13:27:59;100027.22;;;26.14;55.69
31717;BME280;18301;51.076;17.046;2023-07-13T13:33:01;100034.13;;;26.23;54.09
31717;BME280;18301;51.076;17.046;2023-07-13T13:38:19;100028.06;;;26.39;52.84
31717;BME280;18301;51.076;17.046;2023-07-13T13:43:25;100028.81;;;26.53;53.39
31717;BME280;18301;51.076;17.046;2023-07-13T13:48:35;100019.13;;;26.62;52.98
31717;BME280;18301;51.076;17.046;2023-07-13T13:53:39;100022.09;;;26.68;51.87
31717;BME280;18301;51.076;17.046;2023-07-13T13:58:41;100015.91;;;26.66;47.61
31717;BME280;18301;51.076;17.046;2023-07-13T14:03:43;100004.47;;;26.62;49.82
31717;BME280;18301;51.076;17.046;2023-07-13T14:08:45;100000.94;;;26.73;47.90
31717;BME280;18301;51.076;17.046;2023-07-13T14:13:53;99979.19;;;26.77;48.39
31717;BME280;18301;51.076;17.046;2023-07-13T14:18:56;99993.41;;;26.99;48.66
31717;BME280;18301;51.076;17.046;2023-07-13T14:24:00;99992.03;;;26.90;45.46
31717;BME280;18301;51.076;17.046;2023-07-13T14:29:05;99999.56;;;26.64;47.24
31717;BME280;18301;51.076;17.046;2023-07-13T14:34:08;100000.59;;;26.63;46.59
31717;BME280;18301;51.076;17.046;2023-07-13T14:39:17;99994.88;;;26.83;44.88
31717;BME280;18301;51.076;17.046;2023-07-13T14:44:25;99979.72;;;27.04;45.28
31717;BME280;18301;51.076;17.046;2023-07-13T14:49:39;99984.13;;;27.30;42.00
31717;BME280;18301;51.076;17.046;2023-07-13T14:54:41;99987.22;;;27.52;40.27
31717;BME280;18301;51.076;17.046;2023-07-13T14:59:45;99973.19;;;27.65;41.57
31717;BME280;18301;51.076;17.046;2023-07-13T15:04:47;99985.63;;;27.74;41.52
31717;BME280;18301;51.076;17.046;2023-07-13T15:09:49;99982.72;;;27.69;42.29
31717;BME280;18301;51.076;17.046;2023-07-13T15:14:52;99976.22;;;27.45;38.09
31717;BME280;18301;51.076;17.046;2023-07-13T15:19:53;99976.44;;;27.62;40.90
31717;BME280;18301;51.076;17.046;2023-07-13T15:24:55;99971.94;;;27.61;38.30
31717;BME280;18301;51.076;17.046;2023-07-13T15:30:01;99961.97;;;27.60;39.40
31717;BME280;18301;51.076;17.046;2023-07-13T15:35:03;99958.19;;;27.54;39.22
31717;BME280;18301;51.076;17.046;2023-07-13T15:40:05;99965.19;;;27.27;39.81
31717;BME280;18301;51.076;17.046;2023-07-13T15:45:18;99953.78;;;27.35;41.01
31717;BME280;18301;51.076;17.046;2023-07-13T15:50:24;99964.34;;;27.08;42.39
31717;BME280;18301;51.076;17.046;2023-07-13T15:55:26;99982.16;;;27.12;42.18
31717;BME280;18301;51.076;17.046;2023-07-13T16:00:27;99983.03;;;27.13;42.24
31717;BME280;18301;51.076;17.046;2023-07-13T16:05:29;99985.03;;;26.87;43.95
31717;BME280;18301;51.076;17.046;2023-07-13T16:10:35;99988.97;;;26.79;44.35
31717;BME280;18301;51.076;17.046;2023-07-13T16:15:41;99995.41;;;26.73;46.32
31717;BME280;18301;51.076;17.046;2023-07-13T16:20:46;100006.94;;;26.70;46.60
31717;BME280;18301;51.076;17.046;2023-07-13T16:25:49;100005.81;;;26.53;47.20
31717;BME280;18301;51.076;17.046;2023-07-13T16:30:50;100005.22;;;26.44;47.81
31717;BME280;18301;51.076;17.046;2023-07-13T16:35:52;100006.59;;;26.60;46.80
31717;BME280;18301;51.076;17.046;2023-07-13T16:40:54;100003.31;;;26.51;48.18
31717;BME280;18301;51.076;17.046;2023-07-13T16:46:00;100008.84;;;26.51;46.21
31717;BME280;18301;51.076;17.046;2023-07-13T16:51:04;100011.72;;;26.31;45.36
31717;BME280;18301;51.076;17.046;2023-07-13T16:56:14;100011.22;;;26.16;45.07
31717;BME280;18301;51.076;17.046;2023-07-13T17:01:17;100021.69;;;26.14;46.03
31717;BME280;18301;51.076;17.046;2023-07-13T17:06:23;100025.78;;;26.05;44.89
31717;BME280;18301;51.076;17.046;2023-07-13T17:11:25;100025.66;;;25.93;47.83
31717;BME280;18301;51.076;17.046;2023-07-13T17:16:28;100029.97;;;25.82;50.01
31717;BME280;18301;51.076;17.046;2023-07-13T17:21:32;100028.81;;;25.52;49.79
31717;BME280;18301;51.076;17.046;2023-07-13T17:26:33;100028.66;;;25.46;49.69
31717;BME280;18301;51.076;17.046;2023-07-13T17:31:36;100027.78;;;25.46;51.56
31717;BME280;18301;51.076;17.046;2023-07-13T17:36:38;100032.72;;;25.37;53.18
31717;BME280;18301;51.076;17.046;2023-07-13T17:41:41;100034.66;;;25.30;52.80
31717;BME280;18301;51.076;17.046;2023-07-13T17:46:47;100030.84;;;25.31;53.39
31717;BME280;18301;51.076;17.046;2023-07-13T17:51:50;100043.81;;;25.24;54.94
31717;BME280;18301;51.076;17.046;2023-07-13T17:56:52;100041.72;;;25.06;56.09
31717;BME280;18301;51.076;17.046;2023-07-13T18:01:54;100047.50;;;24.91;56.25
31717;BME280;18301;51.076;17.046;2023-07-13T18:06:56;100047.75;;;24.76;57.28
31717;BME280;18301;51.076;17.046;2023-07-13T18:11:57;100053.50;;;24.55;58.91
31717;BME280;18301;51.076;17.046;2023-07-13T18:16:59;100061.09;;;24.26;59.86
31717;BME280;18301;51.076;17.046;2023-07-13T18:22:15;100062.13;;;24.12;59.00
31717;BME280;18301;51.076;17.046;2023-07-13T18:27:17;100069.09;;;24.01;60.43
31717;BME280;18301;51.076;17.046;2023-07-13T18:32:20;100091.38;;;23.93;60.33
31717;BME280;18301;51.076;17.046;2023-07-13T18:37:22;100088.59;;;23.93;60.99
31717;BME280;18301;51.076;17.046;2023-07-13T18:42:24;100086.88;;;23.85;60.50
31717;BME280;18301;51.076;17.046;2023-07-13T18:47:26;100092.19;;;23.87;60.38
31717;BME280;18301;51.076;17.046;2023-07-13T18:52:33;100104.22;;;23.79;61.42
31717;BME280;18301;51.076;17.046;2023-07-13T18:57:35;100152.44;;;23.55;62.13
31717;BME280;18301;51.076;17.046;2023-07-13T19:02:37;100178.34;;;23.33;61.26
31717;BME280;18301;51.076;17.046;2023-07-13T19:07:39;100189.31;;;22.34;63.04
31717;BME280;18301;51.076;17.046;2023-07-13T19:12:43;100174.19;;;21.57;68.97
31717;BME280;18301;51.076;17.046;2023-07-13T19:17:46;100149.56;;;21.19;70.06
31717;BME280;18301;51.076;17.046;2023-07-13T19:22:49;100153.19;;;20.97;75.49
31717;BME280;18301;51.076;17.046;2023-07-13T19:27:58;100149.19;;;20.69;76.03
31717;BME280;18301;51.076;17.046;2023-07-13T19:33:00;100157.44;;;20.69;77.14
31717;BME280;18301;51.076;17.046;2023-07-13T19:38:02;100154.66;;;20.46;79.88
31717;BME280;18301;51.076;17.046;2023-07-13T19:43:03;100158.59;;;20.29;82.21
31717;BME280;18301;51.076;17.046;2023-07-13T19:48:09;100176.31;;;20.10;81.81
31717;BME280;18301;51.076;17.046;2023-07-13T19:53:16;100177.03;;;19.73;89.90
31717;BME280;18301;51.076;17.046;2023-07-13T19:58:19;100176.56;;;19.61;86.26
31717;BME280;18301;51.076;17.046;2023-07-13T20:03:21;100188.03;;;19.65;84.58
31717;BME280;18301;51.076;17.046;2023-07-13T20:08:22;100206.75;;;19.92;85.57
31717;BME280;18301;51.076;17.046;2023-07-13T20:13:24;100235.59;;;20.03;84.27
31717;BME280;18301;51.076;17.046;2023-07-13T20:18:32;100245.16;;;20.07;87.21
31717;BME280;18301;51.076;17.046;2023-07-13T20:23:34;100247.97;;;20.30;81.88
31717;BME280;18301;51.076;17.046;2023-07-13T20:28:36;100223.97;;;20.32;85.01
31717;BME280;18301;51.076;17.046;2023-07-13T20:33:40;100214.47;;;20.20;84.80
31717;BME280;18301;51.076;17.046;2023-07-13T20:38:42;100188.44;;;20.16;82.25
31717;BME280;18301;51.076;17.046;2023-07-13T20:43:44;100182.44;;;20.20;80.44
31717;BME280;18301;51.076;17.046;2023-07-13T20:48:47;100186.16;;;19.96;82.47
31717;BME280;18301;51.076;17.046;2023-07-13T20:53:51;100182.50;;;19.73;82.79
31717;BME280;18301;51.076;17.046;2023-07-13T20:58:57;100191.63;;;19.57;84.04
31717;BME280;18301;51.076;17.046;2023-07-13T21:04:00;100188.25;;;19.39;84.57
31717;BME280;18301;51.076;17.046;2023-07-13T21:09:13;100198.06;;;19.25;84.13
31717;BME280;18301;51.076;17.046;2023-07-13T21:14:17;100204.88;;;19.37;84.43
31717;BME280;18301;51.076;17.046;2023-07-13T21:19:20;100205.84;;;19.44;85.22
31717;BME280;18301;51.076;17.046;2023-07-13T21:24:22;100213.97;;;19.21;87.22
31717;BME280;18301;51.076;17.046;2023-07-13T21:29:23;100225.75;;;19.22;86.33
31717;BME280;18301;51.076;17.046;2023-07-13T21:34:25;100218.41;;;19.30;86.20
31717;BME280;18301;51.076;17.046;2023-07-13T21:39:26;100218.22;;;19.24;87.99
31717;BME280;18301;51.076;17.046;2023-07-13T21:44:30;100211.41;;;19.03;87.25
31717;BME280;18301;51.076;17.046;2023-07-13T21:49:32;100220.31;;;18.97;87.38
31717;BME280;18301;51.076;17.046;2023-07-13T21:54:33;100226.13;;;18.86;89.45
31717;BME280;18301;51.076;17.046;2023-07-13T21:59:35;100223.38;;;18.78;88.80
31717;BME280;18301;51.076;17.046;2023-07-13T22:04:37;100223.91;;;18.81;88.59
31717;BME280;18301;51.076;17.046;2023-07-13T22:09:38;100221.34;;;18.80;89.22
31717;BME280;18301;51.076;17.046;2023-07-13T22:14:40;100234.28;;;18.61;89.88
31717;BME280;18301;51.076;17.046;2023-07-13T22:19:41;100240.59;;;18.70;90.05
31717;BME280;18301;51.076;17.046;2023-07-13T22:24:43;100238.91;;;18.61;91.90
31717;BME280;18301;51.076;17.046;2023-07-13T22:29:44;100233.78;;;18.58;92.37
31717;BME280;18301;51.076;17.046;2023-07-13T22:34:46;100240.25;;;18.65;91.52
31717;BME280;18301;51.076;17.046;2023-07-13T22:39:47;100250.34;;;18.64;90.58
31717;BME280;18301;51.076;17.046;2023-07-13T22:44:49;100244.19;;;18.71;89.73
31717;BME280;18301;51.076;17.046;2023-07-13T22:49:52;100246.22;;;18.69;89.78
31717;BME280;18301;51.076;17.046;2023-07-13T22:54:54;100259.75;;;18.70;90.36
31717;BME280;18301;51.076;17.046;2023-07-13T22:59:55;100240.44;;;18.72;89.81
31717;BME280;18301;51.076;17.046;2023-07-13T23:04:57;100254.44;;;18.60;89.98
31717;BME280;18301;51.076;17.046;2023-07-13T23:09:58;100252.72;;;18.59;89.84
31717;BME280;18301;51.076;17.046;2023-07-13T23:15:13;100240.75;;;18.52;89.68
31717;BME280;18301;51.076;17.046;2023-07-13T23:20:27;100245.72;;;18.57;89.45
31717;BME280;18301;51.076;17.046;2023-07-13T23:25:30;100249.31;;;18.57;89.37
31717;BME280;18301;51.076;17.046;2023-07-13T23:30:34;100245.03;;;18.55;89.45
31717;BME280;18301;51.076;17.046;2023-07-13T23:35:36;100255.28;;;18.53;88.84
31717;BME280;18301;51.076;17.046;2023-07-13T23:40:38;100264.13;;;18.47;89.27
31717;BME280;18301;51.076;17.046;2023-07-13T23:45:40;100259.72;;;18.46;89.16
31717;BME280;18301;51.076;17.046;2023-07-13T23:50:43;100261.56;;;18.37;88.91
31717;BME280;18301;51.076;17.046;2023-07-13T23:55:45;100265.47;;;18.34;89.01
